Time;durP1;ratioP1;P1;durP2;ratioP2;P2;SDS_P1;SDS_P2;PMS_P1;PMS_P2;Temp;Humidity;BMP_temperature;BMP_pressure;BME280_temperature;BME280_humidity;BME280_pressure;Samples;Min_cycle;Max_cycle;Signal;HPM_P1;HPM_P2
2021/07/30 00:00:58;;;;;;;13.30;6.32;;;15.80;73.00;;;;;;5015252;28;20368;-72
2021/07/30 00:03:24;;;;;;;13.10;6.22;;;15.80;73.10;;;;;;5002016;28;20089;-79
2021/07/30 00:05:53;;;;;;;14.65;5.72;;;15.80;73.30;;;;;;5021891;28;20388;-72
2021/07/30 00:08:19;;;;;;;13.25;5.45;;;15.80;73.60;;;;;;5022794;28;20036;-72
2021/07/30 00:10:46;;;;;;;14.48;6.00;;;15.90;73.60;;;;;;5029760;28;20037;-76
2021/07/30 00:13:12;;;;;;;10.63;5.53;;;15.80;73.50;;;;;;5031132;28;20057;-79
2021/07/30 00:15:38;;;;;;;11.48;5.85;;;15.80;73.60;;;;;;5033386;28;20389;-73
2021/07/30 00:18:04;;;;;;;15.90;6.18;;;15.80;73.80;;;;;;5033883;28;20040;-74
2021/07/30 00:20:30;;;;;;;14.43;6.55;;;15.70;74.00;;;;;;5019821;28;20029;-75
2021/07/30 00:22:55;;;;;;;15.05;6.28;;;15.70;74.10;;;;;;5022218;28;20044;-73
2021/07/30 00:25:21;;;;;;;13.57;6.57;;;15.70;74.10;;;;;;5032411;28;20033;-72
2021/07/30 00:27:47;;;;;;;12.23;6.82;;;15.70;74.20;;;;;;5031685;28;20025;-73
2021/07/30 00:30:13;;;;;;;16.25;6.55;;;15.70;74.20;;;;;;5029527;28;20048;-74
2021/07/30 00:32:39;;;;;;;12.82;6.40;;;15.80;74.40;;;;;;5029797;28;20420;-74
2021/07/30 00:35:05;;;;;;;13.63;7.03;;;15.80;74.50;;;;;;5026388;28;20026;-72
2021/07/30 00:37:34;;;;;;;12.95;6.10;;;15.80;74.80;;;;;;5031166;28;20033;-72
2021/07/30 00:40:00;;;;;;;14.63;6.28;;;15.70;74.70;;;;;;5027763;28;20045;-76
2021/07/30 00:42:26;;;;;;;14.65;7.13;;;15.70;74.80;;;;;;5025031;28;20033;-74
2021/07/30 00:44:51;;;;;;;12.02;6.95;;;15.70;75.00;;;;;;5028271;28;20052;-72
2021/07/30 00:47:18;;;;;;;14.48;7.80;;;15.70;75.20;;;;;;5032277;28;20022;-75
2021/07/30 00:49:44;;;;;;;12.63;6.18;;;15.70;75.30;;;;;;5026704;28;20054;-76
2021/07/30 00:52:10;;;;;;;12.77;6.50;;;15.70;75.20;;;;;;5029124;28;20030;-72
2021/07/30 00:54:35;;;;;;;16.63;7.20;;;15.70;75.10;;;;;;5034681;28;20456;-75
2021/07/30 00:57:01;;;;;;;13.00;6.90;;;15.70;75.30;;;;;;5029627;28;20346;-73
2021/07/30 00:59:28;;;;;;;11.07;6.65;;;15.70;75.20;;;;;;5025511;28;20105;-74
2021/07/30 01:01:54;;;;;;;13.60;6.95;;;15.70;75.20;;;;;;5019678;28;20461;-74
2021/07/30 01:04:20;;;;;;;15.80;6.88;;;15.80;75.40;;;;;;5029360;28;20056;-75
2021/07/30 01:06:46;;;;;;;12.60;6.70;;;15.80;75.30;;;;;;5022015;28;20049;-77
2021/07/30 01:09:12;;;;;;;14.57;6.85;;;15.80;75.20;;;;;;5024452;28;20044;-72
2021/07/30 01:11:37;;;;;;;12.90;6.43;;;15.80;75.20;;;;;;5028995;28;20484;-73
2021/07/30 01:14:03;;;;;;;12.23;5.38;;;15.90;75.10;;;;;;5027010;28;20034;-73
2021/07/30 01:16:29;;;;;;;15.77;7.00;;;15.80;74.90;;;;;;5023770;28;20030;-75
2021/07/30 01:18:54;;;;;;;14.63;7.55;;;15.80;75.00;;;;;;5028528;28;20436;-74
2021/07/30 01:21:27;;;;;;;13.48;7.15;;;15.80;75.10;;;;;;5025241;28;20045;-73
2021/07/30 01:23:53;;;;;;;11.70;6.47;;;15.80;75.10;;;;;;5025101;28;20048;-73
2021/07/30 01:26:20;;;;;;;17.30;6.60;;;15.80;75.10;;;;;;5026343;28;20041;-73
2021/07/30 01:28:45;;;;;;;17.20;6.25;;;15.70;75.10;;;;;;5022727;28;20034;-72
2021/07/30 01:31:11;;;;;;;12.75;5.68;;;15.70;75.20;;;;;;5026724;28;20032;-74
2021/07/30 01:33:37;;;;;;;14.52;6.72;;;15.70;75.30;;;;;;5021075;28;20038;-76
2021/07/30 01:36:03;;;;;;;13.48;6.28;;;15.70;75.40;;;;;;5022715;28;20133;-74
2021/07/30 01:38:30;;;;;;;12.70;6.50;;;15.60;75.60;;;;;;5025484;28;20029;-72
2021/07/30 01:41:08;;;;;;;13.02;6.05;;;15.60;75.70;;;;;;5021159;28;20041;-73
2021/07/30 01:43:38;;;;;;;14.05;6.47;;;15.60;75.60;;;;;;5016951;28;20029;-72
2021/07/30 01:46:04;;;;;;;12.55;6.32;;;15.60;75.70;;;;;;5007011;28;20365;-72
2021/07/30 01:48:30;;;;;;;16.42;6.75;;;15.60;75.80;;;;;;5024319;28;20041;-73
2021/07/30 01:50:55;;;;;;;11.63;6.70;;;15.60;76.00;;;;;;5021779;28;20046;-72
2021/07/30 01:53:21;;;;;;;11.73;6.13;;;15.50;76.00;;;;;;5023305;28;20092;-75
2021/07/30 01:55:46;;;;;;;12.63;6.75;;;15.50;76.20;;;;;;5010159;28;20027;-73
2021/07/30 01:58:12;;;;;;;15.23;6.65;;;15.50;76.20;;;;;;5005402;28;20050;-72
2021/07/30 02:00:38;;;;;;;11.75;6.97;;;15.50;76.10;;;;;;5001393;28;20508;-74
2021/07/30 02:03:04;;;;;;;11.52;6.38;;;15.50;76.20;;;;;;5004450;28;20460;-81
2021/07/30 02:05:30;;;;;;;13.63;6.82;;;15.50;76.10;;;;;;5028211;28;20034;-73
2021/07/30 02:07:56;;;;;;;12.27;6.93;;;15.50;76.00;;;;;;5021236;28;20045;-82
2021/07/30 02:10:21;;;;;;;11.77;5.97;;;15.40;76.00;;;;;;5019639;28;20137;-73
2021/07/30 02:15:31;;;;;;;11.90;6.57;;;15.40;76.40;;;;;;5008265;28;20041;-74
2021/07/30 02:17:57;;;;;;;13.18;6.45;;;15.40;76.50;;;;;;5003768;28;20281;-77
2021/07/30 02:20:22;;;;;;;10.70;6.30;;;15.40;76.50;;;;;;4995942;28;20037;-73
2021/07/30 02:22:48;;;;;;;13.68;6.32;;;15.30;76.40;;;;;;5001252;28;20500;-73
2021/07/30 02:25:14;;;;;;;11.73;6.15;;;15.30;76.40;;;;;;5006638;28;20113;-73
2021/07/30 02:27:39;;;;;;;12.48;6.93;;;15.20;76.30;;;;;;4996225;28;20125;-74
2021/07/30 02:30:05;;;;;;;12.15;6.45;;;15.20;76.40;;;;;;5001518;28;20458;-72
2021/07/30 02:32:31;;;;;;;10.98;5.35;;;15.20;76.60;;;;;;5004653;28;20898;-74
2021/07/30 02:34:56;;;;;;;13.43;6.03;;;15.20;76.60;;;;;;5004069;28;20108;-74
2021/07/30 02:37:22;;;;;;;11.30;5.75;;;15.20;76.60;;;;;;5004013;28;20037;-74
2021/07/30 02:39:48;;;;;;;12.50;5.85;;;15.20;76.60;;;;;;5011440;28;20377;-73
2021/07/30 02:42:13;;;;;;;12.70;6.45;;;15.20;76.30;;;;;;5004448;28;20379;-73
2021/07/30 02:44:39;;;;;;;16.35;6.40;;;15.20;76.20;;;;;;5007246;28;20050;-72
2021/07/30 02:47:05;;;;;;;15.88;7.00;;;15.20;76.00;;;;;;5003221;28;20044;-75
2021/07/30 02:49:30;;;;;;;13.02;6.72;;;15.20;75.90;;;;;;4998851;28;20049;-75
2021/07/30 02:51:56;;;;;;;14.38;6.50;;;15.30;75.70;;;;;;4999341;28;20038;-73
2021/07/30 02:54:22;;;;;;;19.48;7.32;;;15.40;75.50;;;;;;5001093;28;20126;-73
2021/07/30 02:56:47;;;;;;;13.35;6.80;;;15.40;75.30;;;;;;4998875;28;20172;-73
2021/07/30 02:59:13;;;;;;;14.88;7.55;;;15.40;75.20;;;;;;5005715;28;21344;-73
2021/07/30 03:01:38;;;;;;;17.10;7.70;;;15.40;75.20;;;;;;4998075;28;20045;-72
2021/07/30 03:04:04;;;;;;;16.13;8.20;;;15.40;75.30;;;;;;5004420;28;20389;-74
2021/07/30 03:06:30;;;;;;;18.38;7.65;;;15.40;75.40;;;;;;4994192;28;20041;-72
2021/07/30 03:08:56;;;;;;;17.02;7.80;;;15.40;75.40;;;;;;5002028;28;20045;-75
2021/07/30 03:11:22;;;;;;;14.63;7.90;;;15.50;75.40;;;;;;4996331;28;20561;-72
2021/07/30 03:13:48;;;;;;;18.50;8.15;;;15.40;75.60;;;;;;5004742;28;20033;-73
2021/07/30 03:16:14;;;;;;;16.98;7.13;;;15.40;75.60;;;;;;4996841;28;20417;-76
2021/07/30 03:18:39;;;;;;;17.27;7.55;;;15.40;75.40;;;;;;5003641;28;20492;-73
2021/07/30 03:21:05;;;;;;;17.27;8.35;;;15.50;75.70;;;;;;5003283;28;20045;-76
2021/07/30 03:23:31;;;;;;;17.48;8.60;;;15.40;75.80;;;;;;5003712;28;20048;-81
2021/07/30 03:25:57;;;;;;;16.95;7.80;;;15.50;75.90;;;;;;5005399;28;20050;-79
2021/07/30 03:28:22;;;;;;;14.43;8.05;;;15.50;75.90;;;;;;5000302;28;20038;-73
2021/07/30 03:30:48;;;;;;;13.77;7.22;;;15.50;75.90;;;;;;5005114;28;20057;-73
2021/07/30 03:33:14;;;;;;;17.23;7.95;;;15.50;75.90;;;;;;5002344;28;20068;-78
2021/07/30 03:35:40;;;;;;;14.25;6.93;;;15.50;75.90;;;;;;4998206;28;20038;-72
2021/07/30 03:38:06;;;;;;;16.33;8.05;;;15.50;76.10;;;;;;4999860;28;20470;-72
2021/07/30 03:40:32;;;;;;;17.25;7.82;;;15.50;76.10;;;;;;5005902;28;20037;-73
2021/07/30 03:42:58;;;;;;;15.90;8.02;;;15.50;75.80;;;;;;5008001;28;20500;-74
2021/07/30 03:45:25;;;;;;;17.42;8.13;;;15.50;75.80;;;;;;5007523;28;20109;-73
2021/07/30 03:47:50;;;;;;;15.52;8.32;;;15.50;76.00;;;;;;5001535;28;20034;-72
2021/07/30 03:50:16;;;;;;;15.70;8.05;;;15.50;76.30;;;;;;4999024;28;20053;-72
2021/07/30 03:52:42;;;;;;;17.33;8.23;;;15.50;76.30;;;;;;5001694;28;20053;-72
2021/07/30 03:55:09;;;;;;;15.07;7.93;;;15.40;76.40;;;;;;4996826;28;20038;-73
2021/07/30 03:57:35;;;;;;;17.95;8.93;;;15.40;76.50;;;;;;5002758;28;20026;-74
2021/07/30 04:00:00;;;;;;;20.92;9.85;;;15.50;76.50;;;;;;5001968;28;20141;-72
2021/07/30 04:02:26;;;;;;;16.40;8.02;;;15.50;76.20;;;;;;4995073;28;20444;-74
2021/07/30 04:04:51;;;;;;;19.42;9.00;;;15.50;76.10;;;;;;5002869;28;20445;-73
2021/07/30 04:07:17;;;;;;;19.70;9.77;;;15.50;76.10;;;;;;5002009;28;20026;-72
2021/07/30 04:09:43;;;;;;;19.70;9.93;;;15.50;76.10;;;;;;4999441;28;20049;-72
2021/07/30 04:12:09;;;;;;;18.42;9.48;;;15.40;76.10;;;;;;5006403;28;20121;-73
2021/07/30 04:14:34;;;;;;;19.70;9.60;;;15.50;76.20;;;;;;5001624;28;20038;-73
2021/07/30 04:17:00;;;;;;;16.10;8.25;;;15.50;76.00;;;;;;5009513;28;20103;-78
2021/07/30 04:19:26;;;;;;;21.02;9.02;;;15.50;75.90;;;;;;5004744;28;20484;-72
2021/07/30 04:21:51;;;;;;;15.15;8.40;;;15.60;75.80;;;;;;5000720;28;20120;-72
2021/07/30 04:24:17;;;;;;;17.30;8.02;;;15.60;75.80;;;;;;5004704;28;20113;-72
2021/07/30 04:26:44;;;;;;;14.52;7.43;;;15.60;75.90;;;;;;4998821;28;20108;-72
2021/07/30 04:29:09;;;;;;;18.33;8.05;;;15.60;75.50;;;;;;4996702;28;20078;-74
2021/07/30 04:31:40;;;;;;;14.23;7.68;;;15.70;75.40;;;;;;5001540;28;20080;-74
2021/07/30 04:34:06;;;;;;;14.73;7.65;;;15.70;75.40;;;;;;4998715;28;20029;-74
2021/07/30 04:36:32;;;;;;;21.05;8.23;;;15.70;75.20;;;;;;5006252;28;20029;-73
2021/07/30 04:38:57;;;;;;;17.50;7.43;;;15.80;75.10;;;;;;5002305;28;20354;-74
2021/07/30 04:41:23;;;;;;;15.68;7.38;;;15.90;75.30;;;;;;5011165;28;20061;-73
2021/07/30 04:43:49;;;;;;;12.65;6.82;;;15.90;75.10;;;;;;5005862;28;20038;-73
2021/07/30 04:46:16;;;;;;;14.25;7.32;;;16.10;74.70;;;;;;4999286;28;20033;-72
2021/07/30 04:48:42;;;;;;;13.32;7.30;;;16.10;74.60;;;;;;5010802;28;20054;-74
2021/07/30 04:51:08;;;;;;;14.20;7.25;;;16.10;74.30;;;;;;4999301;28;20440;-73
2021/07/30 04:53:33;;;;;;;16.83;7.22;;;16.20;74.00;;;;;;5007068;28;20022;-73
2021/07/30 04:55:59;;;;;;;18.02;8.10;;;16.20;73.80;;;;;;5004037;28;20022;-76
2021/07/30 04:58:25;;;;;;;17.30;7.97;;;16.40;73.60;;;;;;4991606;28;20069;-76
2021/07/30 05:00:50;;;;;;;13.73;7.32;;;16.40;73.70;;;;;;5004769;28;20033;-71
2021/07/30 05:03:16;;;;;;;19.02;8.50;;;16.50;73.50;;;;;;5000390;28;20113;-75
2021/07/30 05:05:41;;;;;;;17.33;8.10;;;16.50;73.20;;;;;;5005968;28;20034;-73
2021/07/30 05:08:07;;;;;;;15.13;8.18;;;16.60;73.00;;;;;;5006764;28;20524;-78
2021/07/30 05:10:33;;;;;;;15.20;7.53;;;16.60;72.80;;;;;;5004976;28;20053;-72
2021/07/30 05:12:59;;;;;;;17.13;7.22;;;16.60;73.00;;;;;;5003310;28;20030;-73
2021/07/30 05:15:25;;;;;;;14.23;6.88;;;16.60;72.60;;;;;;5006186;28;20041;-71
2021/07/30 05:17:51;;;;;;;13.45;7.30;;;16.60;72.60;;;;;;5002385;28;20046;-72
2021/07/30 05:20:16;;;;;;;11.55;6.20;;;16.60;72.50;;;;;;5009153;28;20492;-72
2021/07/30 05:22:42;;;;;;;15.68;6.15;;;16.70;72.50;;;;;;5008226;28;20050;-72
2021/07/30 05:25:12;;;;;;;12.65;6.03;;;16.70;72.50;;;;;;5006941;28;20036;-73
2021/07/30 05:27:38;;;;;;;14.25;6.13;;;16.80;72.30;;;;;;5002827;28;20034;-73
2021/07/30 05:30:04;;;;;;;10.57;5.13;;;16.80;72.40;;;;;;4999674;28;20046;-73
2021/07/30 05:32:30;;;;;;;10.23;5.35;;;16.90;72.00;;;;;;5006870;28;20540;-75
2021/07/30 05:34:55;;;;;;;10.68;5.13;;;16.90;71.60;;;;;;5001245;28;20136;-74
2021/07/30 05:37:21;;;;;;;13.15;5.93;;;16.90;71.90;;;;;;5001684;28;20042;-73
2021/07/30 05:39:46;;;;;;;13.25;5.80;;;17.00;71.80;;;;;;5002994;28;20481;-76
2021/07/30 05:42:12;;;;;;;10.77;5.20;;;17.00;71.90;;;;;;4998578;28;20058;-75
2021/07/30 05:44:39;;;;;;;10.40;5.63;;;17.10;71.80;;;;;;4999647;28;20030;-72
2021/07/30 05:47:05;;;;;;;12.43;5.57;;;17.10;71.50;;;;;;5000293;28;20030;-73
2021/07/30 05:49:33;;;;;;;13.43;5.55;;;17.30;71.70;;;;;;4999577;28;20046;-74
2021/07/30 05:51:58;;;;;;;11.25;5.65;;;17.40;70.80;;;;;;5002167;28;20078;-72
2021/07/30 05:54:24;;;;;;;11.25;5.10;;;17.60;70.50;;;;;;5001478;28;20042;-74
2021/07/30 05:56:55;;;;;;;12.15;5.28;;;17.60;70.20;;;;;;5006252;28;20141;-74
2021/07/30 05:59:22;;;;;;;12.10;4.22;;;17.70;70.10;;;;;;5004213;28;20048;-72
2021/07/30 06:01:48;;;;;;;12.02;4.85;;;17.70;69.20;;;;;;5007072;28;20034;-72
2021/07/30 06:04:13;;;;;;;11.00;4.57;;;17.60;69.70;;;;;;5001890;28;20077;-72
2021/07/30 06:06:39;;;;;;;9.45;4.38;;;17.70;69.30;;;;;;4999686;28;20085;-79
2021/07/30 06:09:04;;;;;;;12.73;4.70;;;17.90;68.70;;;;;;5002488;28;20065;-73
2021/07/30 06:11:30;;;;;;;16.27;4.22;;;18.00;67.80;;;;;;4997844;28;20034;-72
2021/07/30 06:13:56;;;;;;;11.68;4.63;;;18.10;67.20;;;;;;5002392;28;20064;-71
2021/07/30 06:16:21;;;;;;;11.32;4.65;;;18.40;66.80;;;;;;5002838;28;20045;-71
2021/07/30 06:18:47;;;;;;;10.38;4.53;;;18.40;67.10;;;;;;5002714;28;20137;-72
2021/07/30 06:21:13;;;;;;;11.02;4.20;;;18.60;66.90;;;;;;5004902;28;20522;-74
2021/07/30 06:23:38;;;;;;;13.73;4.80;;;18.70;66.20;;;;;;4996700;28;20045;-73
2021/07/30 06:26:04;;;;;;;11.30;4.78;;;18.90;65.50;;;;;;5004719;28;20080;-72
2021/07/30 06:28:30;;;;;;;12.45;4.35;;;19.00;65.60;;;;;;5007128;28;20103;-74
2021/07/30 06:30:55;;;;;;;10.30;4.50;;;18.80;66.00;;;;;;5003302;28;20042;-73
2021/07/30 06:33:23;;;;;;;10.73;4.25;;;19.10;65.70;;;;;;4997587;28;20037;-77
2021/07/30 06:35:49;;;;;;;9.48;4.57;;;19.20;65.70;;;;;;5026280;28;20568;-76
2021/07/30 06:38:15;;;;;;;9.45;4.88;;;19.50;65.50;;;;;;5017331;28;20052;-73
2021/07/30 06:40:44;;;;;;;13.38;4.85;;;19.60;63.90;;;;;;5020727;28;20690;-74
2021/07/30 06:43:10;;;;;;;11.63;5.30;;;19.60;64.40;;;;;;5022864;28;20411;-73
2021/07/30 06:45:35;;;;;;;9.95;4.15;;;19.60;64.20;;;;;;5021777;28;20026;-73
2021/07/30 06:48:01;;;;;;;8.10;4.63;;;19.70;64.50;;;;;;5022653;28;20048;-73
2021/07/30 06:50:27;;;;;;;11.73;4.70;;;19.70;64.10;;;;;;5019824;28;20181;-73
2021/07/30 06:52:52;;;;;;;11.23;5.05;;;19.80;64.50;;;;;;5023982;28;20047;-75
2021/07/30 06:55:19;;;;;;;9.38;4.55;;;19.90;64.20;;;;;;5005420;28;20465;-73
2021/07/30 06:57:44;;;;;;;11.55;4.18;;;19.80;64.20;;;;;;4999512;28;20146;-73
2021/07/30 07:00:12;;;;;;;10.98;5.03;;;20.00;64.10;;;;;;5002234;28;20063;-76
2021/07/30 07:02:37;;;;;;;12.85;5.10;;;19.90;63.70;;;;;;5015615;28;20057;-74
2021/07/30 07:05:03;;;;;;;9.75;4.78;;;20.00;64.30;;;;;;5002283;28;20030;-73
2021/07/30 07:07:29;;;;;;;11.25;5.47;;;20.00;64.10;;;;;;5014006;28;20040;-73
2021/07/30 07:09:54;;;;;;;10.23;4.75;;;19.80;64.30;;;;;;5006945;28;20065;-70
2021/07/30 07:12:20;;;;;;;7.85;4.63;;;19.80;64.20;;;;;;5017073;28;20406;-75
2021/07/30 07:14:46;;;;;;;9.15;4.70;;;19.70;65.10;;;;;;5005730;28;20705;-70
2021/07/30 07:17:11;;;;;;;9.75;4.47;;;19.70;65.30;;;;;;4992560;28;20040;-71
2021/07/30 07:19:37;;;;;;;9.43;4.78;;;19.70;65.40;;;;;;4997196;28;20030;-70
2021/07/30 07:22:03;;;;;;;10.90;5.03;;;19.80;65.10;;;;;;4997377;28;20048;-77
2021/07/30 07:24:28;;;;;;;11.48;4.88;;;19.70;65.30;;;;;;4999298;28;20029;-72
2021/07/30 07:26:54;;;;;;;11.07;4.60;;;19.80;65.20;;;;;;4999809;28;20038;-71
2021/07/30 07:29:20;;;;;;;11.55;4.97;;;20.00;65.10;;;;;;5019487;28;20389;-71
2021/07/30 07:31:46;;;;;;;9.73;4.75;;;19.90;64.70;;;;;;5011427;28;20030;-70
2021/07/30 07:34:12;;;;;;;10.52;4.65;;;20.00;65.10;;;;;;4998177;28;20113;-71
2021/07/30 07:36:38;;;;;;;7.05;4.50;;;20.30;64.70;;;;;;5008010;28;20436;-71
2021/07/30 07:39:03;;;;;;;9.82;4.38;;;20.50;63.90;;;;;;4998224;28;20462;-73
2021/07/30 07:41:30;;;;;;;10.75;4.90;;;20.80;63.10;;;;;;5001883;28;20033;-77
2021/07/30 07:43:56;;;;;;;8.07;4.38;;;21.00;62.50;;;;;;4999133;28;20080;-73
2021/07/30 07:46:21;;;;;;;9.70;4.45;;;21.00;62.50;;;;;;4999983;28;20046;-70
2021/07/30 07:48:47;;;;;;;8.73;4.90;;;21.10;61.90;;;;;;4998895;28;20370;-71
2021/07/30 07:51:13;;;;;;;7.53;4.28;;;21.30;61.40;;;;;;4997953;28;20066;-70
2021/07/30 07:53:38;;;;;;;11.38;4.35;;;21.60;60.70;;;;;;5001514;28;20049;-72
2021/07/30 07:56:05;;;;;;;7.40;3.75;;;22.00;59.80;;;;;;5005000;28;20440;-74
2021/07/30 07:58:32;;;;;;;9.25;4.50;;;22.10;59.50;;;;;;4994092;28;20354;-75
2021/07/30 08:00:58;;;;;;;8.02;4.05;;;22.10;59.80;;;;;;4998639;28;20037;-71
2021/07/30 08:03:24;;;;;;;7.93;4.40;;;22.30;59.50;;;;;;4996000;28;20076;-69
2021/07/30 08:05:49;;;;;;;7.93;4.00;;;22.40;60.00;;;;;;5011249;28;20033;-72
2021/07/30 08:08:15;;;;;;;9.77;3.78;;;22.50;58.30;;;;;;5000583;28;20061;-70
2021/07/30 08:10:41;;;;;;;6.57;3.78;;;22.60;58.70;;;;;;5002964;28;20041;-69
2021/07/30 08:13:07;;;;;;;9.18;4.00;;;22.80;58.00;;;;;;5003606;28;20126;-70
2021/07/30 08:15:32;;;;;;;10.65;3.83;;;23.00;56.80;;;;;;5008836;28;20255;-69
2021/07/30 08:17:58;;;;;;;7.72;4.03;;;22.80;55.90;;;;;;5002571;28;20103;-70
2021/07/30 08:20:24;;;;;;;9.10;4.13;;;22.80;56.40;;;;;;5007556;28;20044;-70
2021/07/30 08:22:49;;;;;;;7.50;3.70;;;23.10;56.60;;;;;;5006281;28;20054;-70
2021/07/30 08:25:15;;;;;;;7.32;3.97;;;23.40;56.70;;;;;;5007869;28;20038;-70
2021/07/30 08:27:41;;;;;;;8.13;3.33;;;23.30;54.40;;;;;;5012658;28;20029;-69
2021/07/30 08:30:07;;;;;;;7.78;4.00;;;23.30;54.30;;;;;;5012826;28;20068;-70
2021/07/30 08:32:33;;;;;;;7.95;3.92;;;22.90;55.20;;;;;;4998338;28;20496;-71
2021/07/30 08:35:00;;;;;;;7.57;4.10;;;22.70;56.00;;;;;;5009484;28;20059;-69
2021/07/30 08:37:25;;;;;;;8.07;3.95;;;22.50;55.60;;;;;;5001035;28;20086;-71
2021/07/30 08:39:51;;;;;;;9.65;4.00;;;22.30;57.40;;;;;;5005648;28;20042;-73
2021/07/30 08:42:18;;;;;;;9.63;3.95;;;22.40;57.80;;;;;;4998095;28;20061;-72
2021/07/30 08:44:44;;;;;;;8.77;4.05;;;22.60;56.90;;;;;;5005121;28;20108;-71
2021/07/30 08:47:12;;;;;;;7.53;3.72;;;22.50;56.90;;;;;;5007141;28;20521;-72
2021/07/30 08:49:38;;;;;;;7.75;3.95;;;22.50;57.10;;;;;;5003638;28;20050;-72
2021/07/30 08:52:12;;;;;;;11.18;4.05;;;22.40;57.40;;;;;;5009633;28;20510;-70
2021/07/30 08:54:40;;;;;;;7.35;4.22;;;22.20;57.80;;;;;;5028625;28;20053;-67
2021/07/30 08:57:15;;;;;;;8.75;4.35;;;22.10;58.40;;;;;;5022191;28;20026;-71
2021/07/30 08:59:41;;;;;;;7.32;4.35;;;22.00;58.80;;;;;;5032256;28;20037;-69
2021/07/30 09:02:08;;;;;;;12.07;4.15;;;21.90;59.20;;;;;;5025344;28;20091;-74
2021/07/30 09:04:33;;;;;;;7.10;4.40;;;21.70;60.30;;;;;;5025711;28;20042;-71
2021/07/30 09:07:02;;;;;;;9.13;4.65;;;21.60;60.20;;;;;;5026906;28;20114;-69
2021/07/30 09:09:32;;;;;;;8.50;4.45;;;21.50;60.00;;;;;;5026451;28;21453;-72
2021/07/30 09:12:00;;;;;;;8.13;4.22;;;21.40;60.80;;;;;;5025820;28;20350;-70
2021/07/30 09:14:43;;;;;;;7.55;4.05;;;21.30;60.80;;;;;;5022765;28;20104;-68
2021/07/30 09:17:10;;;;;;;9.38;4.22;;;21.30;60.50;;;;;;5030931;28;20482;-70
2021/07/30 09:19:55;;;;;;;7.30;4.10;;;21.30;61.20;;;;;;5028092;28;20025;-70
2021/07/30 09:22:21;;;;;;;9.95;4.13;;;21.50;60.90;;;;;;5024601;28;20092;-69
2021/07/30 09:24:57;;;;;;;6.75;3.97;;;21.40;60.90;;;;;;5028750;28;21145;-70
2021/07/30 09:27:23;;;;;;;8.75;4.47;;;21.30;61.20;;;;;;5016676;28;20064;-70
2021/07/30 09:29:48;;;;;;;9.40;4.07;;;21.40;61.30;;;;;;5022162;28;20485;-69
2021/07/30 09:32:16;;;;;;;9.63;4.45;;;21.40;61.30;;;;;;5013769;28;20480;-71
2021/07/30 09:34:44;;;;;;;7.85;4.45;;;21.50;61.60;;;;;;5023761;28;20034;-69
2021/07/30 09:37:10;;;;;;;7.60;4.35;;;21.70;61.70;;;;;;5027047;28;20481;-69
2021/07/30 09:39:47;;;;;;;6.10;3.72;;;22.00;61.80;;;;;;5030790;28;20063;-69
2021/07/30 09:42:19;;;;;;;8.38;4.05;;;21.90;61.40;;;;;;5031343;28;20515;-70
2021/07/30 09:44:54;;;;;;;8.40;3.95;;;21.90;62.00;;;;;;5025565;28;20041;-69
2021/07/30 09:47:21;;;;;;;;;;;21.80;63.00;;;;;;5030673;28;20029;-69
2021/07/30 09:49:58;;;;;;;6.93;3.75;;;22.00;62.10;;;;;;5020601;28;19928;-69
2021/07/30 09:52:25;;;;;;;6.78;3.47;;;21.80;62.90;;;;;;5019875;28;20117;-69
2021/07/30 09:54:56;;;;;;;7.68;3.60;;;21.70;63.20;;;;;;5016237;28;20545;-69
2021/07/30 09:57:36;;;;;;;6.40;3.45;;;21.70;63.50;;;;;;5001584;28;20060;-68
2021/07/30 10:00:14;;;;;;;7.47;3.67;;;21.60;63.20;;;;;;5022312;28;20026;-69
2021/07/30 10:02:44;;;;;;;7.53;4.00;;;21.50;62.80;;;;;;5025616;28;20032;-69
2021/07/30 10:05:12;;;;;;;6.53;3.60;;;21.60;63.10;;;;;;5017448;28;20461;-69
2021/07/30 10:07:41;;;;;;;8.00;3.80;;;22.00;62.40;;;;;;5024490;28;20111;-69
2021/07/30 10:10:25;;;;;;;7.45;4.03;;;22.20;62.00;;;;;;5022522;28;20045;-67
2021/07/30 10:12:56;;;;;;;8.02;4.32;;;22.40;61.60;;;;;;5022855;28;20032;-73
2021/07/30 10:15:22;;;;;;;8.80;4.20;;;22.60;61.00;;;;;;5020223;28;20026;-67
2021/07/30 10:17:53;;;;;;;7.45;4.63;;;22.60;61.10;;;;;;5019476;28;20115;-68
2021/07/30 10:20:20;;;;;;;7.57;4.05;;;22.50;61.30;;;;;;5009518;28;20092;-70
2021/07/30 10:22:59;;;;;;;6.20;3.70;;;22.10;62.20;;;;;;5030249;28;20041;-72
2021/07/30 10:25:49;;;;;;;6.68;3.75;;;21.90;62.20;;;;;;5013066;28;20029;-68
2021/07/30 10:28:18;;;;;;;7.30;3.60;;;21.80;62.70;;;;;;5014433;28;20607;-69
2021/07/30 10:30:55;;;;;;;7.78;3.60;;;21.80;62.80;;;;;;5016783;28;20053;-68
2021/07/30 10:33:33;;;;;;;7.88;4.35;;;21.70;63.40;;;;;;5017269;28;20040;-68
2021/07/30 10:36:13;;;;;;;6.60;4.07;;;21.70;63.90;;;;;;5016387;28;20049;-68
2021/07/30 10:38:39;;;;;;;9.02;4.18;;;21.70;65.20;;;;;;5024925;28;20041;-70
2021/07/30 10:41:08;;;;;;;8.23;4.53;;;21.70;67.70;;;;;;5025246;28;20036;-68
2021/07/30 10:43:49;;;;;;;7.10;4.88;;;21.60;68.50;;;;;;5024842;28;20049;-69
2021/07/30 10:46:19;;;;;;;8.07;4.68;;;21.40;70.70;;;;;;5026833;28;20064;-68
2021/07/30 10:48:46;;;;;;;10.75;5.10;;;21.30;69.20;;;;;;5030133;28;20531;-69
2021/07/30 10:51:30;;;;;;;8.68;4.88;;;21.00;70.60;;;;;;5018820;28;20033;-68
2021/07/30 10:54:08;;;;;;;10.70;5.10;;;21.00;70.80;;;;;;5026329;28;20046;-69
2021/07/30 10:56:37;;;;;;;9.13;4.97;;;20.90;71.10;;;;;;5027339;28;20041;-68
2021/07/30 10:59:06;;;;;;;8.07;5.10;;;21.00;72.50;;;;;;5025381;28;20046;-68
2021/07/30 11:01:40;;;;;;;8.40;5.32;;;20.70;73.00;;;;;;5023606;28;20057;-69
2021/07/30 11:04:06;;;;;;;9.77;5.13;;;20.60;74.50;;;;;;5037059;28;20061;-72
2021/07/30 11:06:41;;;;;;;10.27;5.65;;;20.40;74.10;;;;;;5005389;28;20406;-69
2021/07/30 11:09:12;;;;;;;8.98;5.32;;;20.50;75.20;;;;;;4999706;28;20049;-68
2021/07/30 11:11:47;;;;;;;8.63;5.45;;;20.30;75.40;;;;;;4998895;28;20053;-68
2021/07/30 11:14:13;;;;;;;9.80;5.70;;;20.10;75.80;;;;;;5007135;28;20042;-72
2021/07/30 11:16:40;;;;;;;9.70;6.25;;;20.00;76.40;;;;;;4995936;28;20052;-70
2021/07/30 11:19:06;;;;;;;11.20;6.32;;;20.00;76.80;;;;;;5003332;28;20034;-71
2021/07/30 11:21:32;;;;;;;10.02;7.18;;;20.00;76.40;;;;;;4994795;28;20041;-67
2021/07/30 11:23:58;;;;;;;9.23;7.28;;;19.80;76.30;;;;;;4996521;28;20046;-69
2021/07/30 11:26:24;;;;;;;10.00;7.07;;;19.70;77.40;;;;;;4994305;28;20144;-67
2021/07/30 11:28:51;;;;;;;10.20;6.93;;;19.80;77.70;;;;;;4990155;28;20103;-70
2021/07/30 11:31:18;;;;;;;10.27;7.20;;;20.00;77.50;;;;;;5015190;28;20080;-68
2021/07/30 11:33:44;;;;;;;11.18;7.45;;;20.10;77.40;;;;;;5004860;28;20049;-68
2021/07/30 11:36:12;;;;;;;14.75;6.68;;;20.40;76.40;;;;;;5011524;28;20030;-67
2021/07/30 11:38:51;;;;;;;11.48;6.72;;;20.70;75.30;;;;;;4993762;28;20042;-70
2021/07/30 11:41:18;;;;;;;10.70;5.85;;;20.90;73.20;;;;;;4997401;28;20041;-68
2021/07/30 11:44:01;;;;;;;10.40;6.10;;;21.00;73.30;;;;;;4994729;28;20448;-67
2021/07/30 11:46:28;;;;;;;9.00;6.50;;;21.10;73.20;;;;;;4998436;28;20034;-72
2021/07/30 11:48:54;;;;;;;9.20;5.78;;;21.10;72.90;;;;;;5005424;28;20552;-69
2021/07/30 11:51:21;;;;;;;7.78;5.15;;;21.10;72.50;;;;;;5000783;28;20512;-68
2021/07/30 11:53:48;;;;;;;9.95;5.35;;;21.00;72.70;;;;;;5023276;28;20033;-68
2021/07/30 11:56:17;;;;;;;7.95;4.90;;;21.60;72.40;;;;;;4999094;28;20056;-69
2021/07/30 11:59:03;;;;;;;8.85;4.53;;;22.00;70.70;;;;;;4995885;28;20053;-68
2021/07/30 12:01:30;;;;;;;7.88;4.45;;;22.20;70.00;;;;;;5002166;28;20385;-70
2021/07/30 12:04:13;;;;;;;8.45;4.95;;;22.40;69.40;;;;;;4998552;28;20038;-69
2021/07/30 12:06:52;;;;;;;8.10;4.05;;;22.40;69.20;;;;;;5003122;28;20034;-70
2021/07/30 12:09:19;;;;;;;7.80;4.63;;;22.40;68.90;;;;;;5002173;28;20044;-70
2021/07/30 12:11:57;;;;;;;8.57;4.65;;;22.30;70.50;;;;;;5001651;28;20370;-68
2021/07/30 12:14:25;;;;;;;7.93;5.03;;;22.20;70.20;;;;;;5001944;28;20057;-70
2021/07/30 12:16:53;;;;;;;8.30;4.32;;;21.80;70.40;;;;;;5001623;28;20445;-68
2021/07/30 12:19:35;;;;;;;7.75;4.38;;;22.10;71.10;;;;;;4991766;28;20104;-69
2021/07/30 12:22:05;;;;;;;8.63;5.00;;;22.10;70.50;;;;;;5010738;28;20484;-71
2021/07/30 12:24:32;;;;;;;8.10;4.95;;;22.20;70.40;;;;;;5004772;28;20512;-68
2021/07/30 12:27:14;;;;;;;7.07;4.57;;;22.10;70.50;;;;;;5005112;28;20042;-69
2021/07/30 12:29:45;;;;;;;8.05;4.20;;;21.70;71.00;;;;;;5000680;28;20107;-70
2021/07/30 12:32:15;;;;;;;7.85;3.88;;;21.40;72.60;;;;;;5005949;28;20042;-69
2021/07/30 12:34:56;;;;;;;5.90;3.63;;;21.00;73.80;;;;;;5003176;28;20639;-68
2021/07/30 12:37:22;;;;;;;6.07;3.90;;;20.90;74.30;;;;;;5010129;28;20045;-70
2021/07/30 12:39:50;;;;;;;7.28;3.75;;;20.80;73.90;;;;;;5027167;28;20030;-68
2021/07/30 12:42:17;;;;;;;6.85;3.80;;;20.90;73.40;;;;;;5003463;28;20034;-68
2021/07/30 12:45:16;;;;;;;5.03;3.58;;;21.10;73.10;;;;;;5005887;28;20038;-68